createdAt,value
2022-10-19T00:07:12.361Z,66.05
2022-10-19T00:17:13.833Z,67.07
2022-10-19T00:27:15.269Z,67.28
2022-10-19T00:37:16.732Z,67.08
2022-10-19T00:47:23.356Z,66.88
2022-10-19T00:57:28.545Z,66.65
2022-10-19T01:07:30.741Z,66.44
2022-10-19T01:17:48.981Z,66.96
2022-10-19T01:27:59.773Z,67.07
2022-10-19T01:38:14.361Z,66.90
2022-10-19T01:48:21.049Z,67.24
2022-10-19T01:58:27.974Z,66.78
2022-10-19T02:08:35.001Z,66.72
2022-10-19T02:18:46.264Z,67.14
2022-10-19T02:28:48.641Z,67.47
2022-10-19T02:38:50.166Z,67.57
2022-10-19T02:48:52.045Z,67.99
2022-10-19T02:58:53.880Z,67.29
2022-10-19T03:08:58.489Z,68.21
2022-10-19T03:18:59.966Z,68.31
2022-10-19T03:29:01.823Z,68.56
2022-10-19T03:39:11.518Z,69.02
2022-10-19T03:49:13.088Z,69.40
2022-10-19T03:59:15.821Z,69.75
2022-10-19T04:09:19.509Z,70.02
2022-10-19T04:19:20.990Z,69.83
2022-10-19T04:29:26.485Z,71.26
2022-10-19T04:39:31.146Z,71.00
2022-10-19T04:49:32.566Z,72.38
2022-10-19T04:59:34.057Z,71.16
2022-10-19T05:09:35.617Z,70.76
2022-10-19T05:19:37.074Z,70.60
2022-10-19T05:29:38.498Z,69.25
2022-10-19T05:39:40.073Z,68.59
2022-10-19T05:49:41.531Z,68.26
2022-10-19T05:59:42.970Z,68.30
2022-10-19T06:09:45.685Z,67.23
2022-10-19T06:19:47.137Z,67.17
2022-10-19T06:29:48.789Z,67.04
2022-10-19T06:39:50.333Z,67.14
2022-10-19T06:49:51.780Z,67.13
2022-10-19T06:59:53.791Z,67.03
2022-10-19T07:09:55.302Z,66.17
2022-10-19T07:19:57.029Z,64.79
2022-10-19T07:29:58.466Z,63.09
2022-10-19T07:40:00.201Z,62.07
2022-10-19T07:50:01.643Z,59.84
2022-10-19T08:00:04.123Z,47.78
2022-10-19T08:10:13.661Z,34.63
2022-10-19T08:20:16.057Z,25.96
2022-10-19T08:30:17.766Z,20.69
2022-10-19T08:40:24.024Z,18.02
2022-10-19T08:50:34.221Z,16.87
2022-10-19T09:10:44.123Z,17.43
2022-10-19T09:20:49.178Z,17.80
2022-10-19T09:30:53.186Z,18.00
2022-10-19T09:40:58.206Z,18.84
2022-10-19T09:51:03.333Z,18.83
2022-10-19T10:01:04.933Z,19.01
2022-10-19T10:11:09.035Z,20.24
2022-10-19T10:21:25.298Z,21.77
2022-10-19T10:31:29.772Z,22.21
2022-10-19T10:41:38.477Z,21.17
2022-10-19T10:51:53.161Z,21.63
2022-10-19T11:02:14.378Z,22.58
2022-10-19T11:12:20.022Z,30.40
2022-10-19T11:22:43.377Z,35.70
2022-10-19T11:33:22.219Z,38.04
2022-10-19T11:43:32.058Z,41.03
2022-10-19T11:53:50.523Z,41.37
2022-10-19T12:04:01.839Z,42.11
2022-10-19T12:14:09.484Z,41.92
2022-10-19T12:24:22.658Z,41.95
2022-10-19T12:34:48.205Z,41.41
2022-10-19T12:45:11.960Z,38.55
2022-10-19T12:55:16.355Z,38.16
2022-10-19T13:05:23.383Z,38.67
2022-10-19T13:15:34.057Z,37.91
2022-10-19T13:25:36.937Z,39.75
2022-10-19T13:35:38.945Z,39.49
2022-10-19T13:45:42.614Z,43.38
2022-10-19T13:55:55.588Z,43.44
2022-10-19T14:06:07.862Z,44.87
2022-10-19T14:16:22.532Z,44.88
2022-10-19T14:26:27.925Z,46.04
2022-10-19T14:36:39.518Z,46.12
2022-10-19T14:46:40.958Z,45.49
2022-10-19T14:56:55.518Z,46.10
2022-10-19T15:06:58.983Z,47.23
2022-10-19T15:17:02.843Z,48.35
2022-10-19T15:27:22.435Z,50.37
2022-10-19T15:37:24.650Z,51.32
2022-10-19T15:47:26.887Z,53.30
2022-10-19T15:57:40.199Z,53.16
2022-10-19T16:07:42.018Z,54.68
2022-10-19T16:17:47.165Z,55.09
2022-10-19T16:27:48.692Z,55.98
2022-10-19T16:37:50.114Z,57.10
2022-10-19T16:47:52.858Z,58.33
2022-10-19T16:57:54.297Z,58.47
2022-10-19T17:07:55.984Z,60.49
2022-10-19T17:17:58.002Z,60.95
2022-10-19T17:27:59.453Z,61.67
2022-10-19T17:38:00.882Z,62.80
2022-10-19T17:48:02.309Z,63.02
2022-10-19T17:58:05.325Z,63.04
2022-10-19T18:08:06.845Z,62.01
2022-10-19T18:18:08.290Z,61.41
2022-10-19T18:28:09.837Z,61.48
2022-10-19T18:38:11.297Z,60.97
2022-10-19T18:48:12.712Z,60.86
2022-10-19T18:58:14.173Z,61.03
2022-10-19T19:08:15.828Z,61.08
2022-10-19T19:28:19.655Z,62.87
2022-10-19T19:38:21.157Z,63.01
2022-10-19T19:48:22.791Z,62.84
2022-10-19T19:58:24.281Z,62.62
2022-10-19T20:08:26.467Z,63.28
2022-10-19T20:18:29.579Z,63.40
2022-10-19T20:28:34.087Z,63.66
2022-10-19T20:38:37.182Z,63.82
2022-10-19T20:48:39.700Z,64.54
2022-10-19T20:58:43.362Z,63.91
2022-10-19T21:08:46.239Z,64.07
2022-10-19T21:18:49.314Z,64.51
2022-10-19T21:28:53.191Z,64.23
2022-10-19T21:38:54.676Z,64.39
2022-10-19T21:48:56.392Z,64.50
2022-10-19T21:58:57.952Z,64.52
2022-10-19T22:08:59.916Z,64.28
2022-10-19T22:19:01.420Z,65.35
2022-10-19T22:29:04.773Z,65.77
2022-10-19T22:39:07.051Z,66.86
2022-10-19T22:59:15.489Z,66.84
2022-10-19T23:09:16.896Z,67.14
2022-10-19T23:19:18.468Z,67.37
2022-10-19T23:29:20.033Z,67.72
2022-10-19T23:39:21.465Z,67.74
2022-10-19T23:49:22.890Z,69.30
2022-10-19T23:59:24.333Z,68.79
